• Join FlightAware (Why Join?)
  • Login
  • US Flag 
05:01PM EDT


 

Airport Tracker/Info


-or-


 

Live Flight TrackerFlight Track Log ✈ EJA922 ✈ 28-Aug-2013 ✈ KRKD - KPWK

Flight Track Log - Related Links

Times and Time Zones

All times are in EDT time to prevent confusion due to time zone crossing. See the EJA922 flight status page for this flight to view local times or setup timezone preferences in your user account.

Time Position Orientation Groundspeed Altitude Reporting Facility
EDT Latitude Longitude Course Direction KTS MPH feet Rate Location/Type
02:21PM 44.0000 -69.1639 270° West 197 227 6,900  Level Boston Center
02:22PM 43.9906 -69.2714 263° West 225 259 9,200 2,400 Climbing Boston Center
02:23PM 43.9831 -69.3786 264° West 305 351 11,800 2,640 Climbing Boston Center
02:24PM 43.9700 -69.5206 263° West 339 390 14,500 2,460 Climbing Boston Center
02:25PM 43.9424 -70.1162 258° West  Level FlightAware Approximate
02:25PM 43.9586 -69.6453 263° West 355 409 16,600  Level Boston Center
02:26PM 43.9167 -70.2888 270° West  Level FlightAware Approximate
02:26PM 43.9469 -69.7728 263° West 368 423 18,700  Level Boston Center
02:27PM 43.9381 -69.9375 266° West 368 423 21,200 2,160 Climbing Boston Center
02:28PM 43.9308 -70.0847 266° West 378 435 23,100 1,740 Climbing Boston Center
02:29PM 43.9275 -70.2347 268° West 384 442 24,800 1,740 Climbing Boston Center
02:30PM 43.9222 -70.3936 267° West 396 456 26,600 1,560 Climbing Boston Center
02:31PM 43.9167 -70.5553 267° West 415 478 28,000 1,440 Climbing Boston Center
02:32PM 43.9108 -70.7225 267° West 424 488 29,600 1,560 Climbing Boston Center
02:33PM 43.9050 -70.8897 267° West 435 501 31,200 1,380 Climbing Boston Center
02:34PM 43.8983 -71.0283 266° West 440 506 32,400 1,380 Climbing Boston Center
02:35PM 43.8903 -71.2186 267° West 445 512 34,000 780 Climbing Boston Center
02:36PM 43.8817 -71.4031 266° West 461 531 34,000  Level Boston Center
02:37PM 43.8769 -71.6192 268° West 499 574 34,000  Level Boston Center
02:38PM 43.8658 -71.8122 266° West 511 588 34,000 960 Level Boston Center
02:39PM 43.8689 -71.9994 271° West 511 588 36,000 960 Climbing Boston Center
02:40PM 43.9047 -72.1836 285° West 490 564 36,000  Level Boston Center
02:41PM 43.9447 -72.3653 287° West 490 564 36,000  Level Boston Center
02:42PM 43.9906 -72.5411 290° West 490 564 36,100 840 Climbing Boston Center
02:43PM 44.0297 -72.7114 288° West 477 549 37,800 1,620 Climbing Boston Center
02:44PM 44.0292 -72.8906 270° West 466 536 39,400 1,080 Climbing Boston Center
02:45PM 44.0136 -73.0694 263° West 466 536 40,000 300 Climbing Boston Center
02:46PM 43.9981 -73.2511 263° West 472 543 40,000  Level Boston Center
02:47PM 43.9842 -73.4383 264° West 483 556 40,000  Level Boston Center
02:48PM 43.9678 -73.6228 263° West 488 562 40,000  Level Boston Center
02:49PM 43.9511 -73.8042 263° West 481 554 40,000  Level Boston Center
02:50PM 43.9342 -73.9883 263° West 481 554 40,000  Level Boston Center
02:51PM 43.9194 -74.1550 263° West 481 554 40,000  Level Boston Center
02:52PM 43.9019 -74.3361 262° West 481 554 40,000  Level Boston Center
02:53PM 43.8861 -74.5228 263° West 481 554 40,000  Level Boston Center
02:54PM 43.8658 -74.7122 262° West 481 554 40,000  Level Boston Center
02:55PM 43.8475 -74.8958 262° West 481 554 40,000  Level Boston Center
02:56PM 43.8289 -75.0822 262° West 481 554 40,000  Level Boston Center
02:57PM 43.8092 -75.2883 263° West 487 560 40,000  Level Boston Center
02:58PM 43.7897 -75.4744 262° West 492 566 40,000  Level Boston Center
02:59PM 43.7722 -75.6606 263° West 497 572 40,000  Level Boston Center
03:00PM 43.7503 -75.8433 261° West 497 572 40,000  Level Boston Center
03:01PM 43.7300 -76.0319 262° West 502 578 40,000  Level Boston Center
03:02PM 43.7094 -76.2175 261° West 497 572 40,000  Level Boston Center
03:04PM 43.6567 -76.6578 261° West 503 579 40,000  Level Cleveland Center
03:05PM 43.6322 -76.8603 261° West 497 572 40,000  Level Cleveland Center
03:06PM 43.6086 -77.0425 260° West 491 565 40,000  Level Cleveland Center
03:07PM 43.5869 -77.2272 261° West 491 565 40,000  Level Cleveland Center
03:08PM 43.5650 -77.4089 261° West 491 565 40,000  Level Cleveland Center
03:09PM 43.5447 -77.5789 261° West 491 565 40,000  Level Cleveland Center
03:10PM 43.5222 -77.7633 261° West 491 565 40,000  Level Cleveland Center
03:11PM 43.4994 -77.9475 260° West 491 565 40,000  Level Cleveland Center
03:12PM 43.4742 -78.1317 259° West 491 565 40,000  Level Cleveland Center
03:13PM 43.4489 -78.3158 259° West 491 565 40,000  Level Cleveland Center
03:14PM 43.4000 -78.4833 248° West 490 564 40,000  Level Toronto Center
03:15PM 43.4000 -78.6667 270° West 490 564 40,000  Level Toronto Center
03:16PM 43.3667 -78.8500 256° West 490 564 40,000  Level Toronto Center
03:17PM 43.3333 -79.0333 256° West 490 564 40,000  Level Toronto Center
03:18PM 43.3167 -79.2167 263° West 490 564 40,000  Level Toronto Center
03:19PM 43.2833 -79.4000 256° West 490 564 40,000  Level Toronto Center
03:20PM 43.2667 -79.5833 263° West 490 564 40,000  Level Toronto Center
03:21PM 43.2333 -79.7667 256° West 490 564 40,000  Level Toronto Center
03:22PM 43.2167 -79.9500 263° West 490 564 40,000  Level Toronto Center
03:23PM 43.1833 -80.1333 256° West 490 564 40,000  Level Toronto Center
03:24PM 43.1500 -80.3167 256° West 490 564 40,000  Level Toronto Center
03:25PM 43.1333 -80.5000 263° West 490 564 40,000  Level Toronto Center
03:26PM 43.1000 -80.6833 256° West 490 564 40,000  Level Toronto Center
03:27PM 43.0667 -80.8667 256° West 480 552 40,000  Level Toronto Center
03:28PM 43.0333 -81.0500 256° West 480 552 40,000  Level Toronto Center
03:29PM 43.0167 -81.2000 261° West 480 552 40,000  Level Toronto Center
03:30PM 43.0167 -81.4167 270° West 470 541 40,000  Level Toronto Center
03:31PM 43.0167 -81.6000 270° West 470 541 40,000  Level Toronto Center
03:32PM 43.0167 -81.7500 270° West 470 541 40,000  Level Toronto Center
03:33PM 43.0000 -81.9333 263° West 470 541 40,000  Level Toronto Center
03:34PM 43.0000 -82.1167 270° West 470 541 40,000  Level Toronto Center
03:35PM 43.0000 -82.3000 270° West 470 541 40,000  Level Toronto Center
03:36PM 43.0000 -82.4833 270° West 480 552 40,000  Level Toronto Center
03:37PM 42.9667 -82.6667 256° West 480 552 40,000 -300 Level Toronto Center
03:38PM 42.9747 -82.7881 275° West 482 555 39,600 -1,140 Descending Cleveland Center
03:39PM 42.9483 -82.9658 259° West 482 555 38,200 -1,260 Descending Cleveland Center
03:40PM 42.9236 -83.1464 259° West 482 555 37,100 -600 Descending Cleveland Center
03:41PM 42.8986 -83.3267 259° West 488 562 37,000 -660 Descending Cleveland Center
03:42PM 42.8736 -83.4956 259° West 501 577 35,800 -1,320 Descending Cleveland Center
03:43PM 42.8481 -83.6758 259° West 501 577 34,500 -1,380 Descending Cleveland Center
03:44PM 42.8219 -83.8642 259° West 506 582 33,100 -1,440 Descending Cleveland Center
03:45PM 42.7917 -84.0464 257° West 506 582 31,600 -1,320 Descending Cleveland Center
03:46PM 42.7653 -84.2261 259° West 506 582 30,500 -900 Descending Cleveland Center
03:46PM 42.7411 -84.3908 259° West 503 579 30,000 -300 Descending Chicago Center
03:47PM 42.7131 -84.5758 258° West 500 575 30,000  Level Chicago Center
03:49PM 42.6850 -84.7592 258° West 497 572 30,000  Level Chicago Center
03:50PM 42.6561 -84.9422 258° West 496 571 30,000  Level Chicago Center
03:51PM 42.6264 -85.1256 258° West 496 571 30,000 -300 Level Chicago Center
03:52PM 42.5919 -85.3439 258° West 493 567 29,400 -1,320 Descending Chicago Center
03:53PM 42.5614 -85.5281 257° West 498 573 27,300 -2,460 Descending Chicago Center
03:54PM 42.5319 -85.7067 257° West 487 560 24,400 -2,880 Descending Chicago Center
03:55PM 42.5036 -85.8731 257° West 456 525 21,400 -2,520 Descending Chicago Center
03:56PM 42.4781 -86.0303 258° West 431 496 19,200 -2,220 Descending Chicago Center
03:57PM 42.4606 -86.1803 261° West 411 473 16,900 -1,620 Descending Chicago Center
03:58PM 42.4525 -86.3325 266° West 404 465 15,900 -840 Descending Chicago Center
03:59PM 42.4450 -86.4983 267° West 360 414 15,200 -1,560 Descending Chicago Center
04:00PM 42.4386 -86.6161 266° West 319 367 12,700 -2,160 Descending Chicago Center
04:01PM 42.4331 -86.7364 266° West 319 367 10,700 -1,680 Descending Chicago Center
04:02PM 42.4269 -86.8447 266° West 291 335 9,200 -1,620 Descending Chicago Center
04:03PM 42.4208 -86.9481 265° West 281 323 7,400 -1,740 Descending Chicago Center
04:04PM 42.4144 -87.0442 265° West 260 299 5,700 -1,860 Descending Chicago Center
04:05PM 42.4069 -87.1528 265° West 246 283 3,600 -1,320 Descending Chicago Center
04:06PM 42.4014 -87.2436 265° West 243 280 3,000 -300 Descending Chicago Center
04:07PM 42.3964 -87.3294 266° West 216 249 3,000  Level Chicago Center
04:08PM 42.3917 -87.4089 265° West 214 246 3,100  Climbing Chicago Center
04:09PM 42.3858 -87.4969 265° West 216 249 3,000 -120 Descending Chicago Center
04:10PM 42.3806 -87.5658 264° West 219 252 2,900  Descending Chicago Center
04:11PM 42.3703 -87.6506 261° West 219 252 3,000 60 Climbing Chicago Center
04:12PM 42.3514 -87.7372 254° West 219 252 3,100  Climbing Chicago Center
04:13PM 42.3350 -87.8164 254° West 216 249 3,000 -240 Descending Chicago Center
04:15PM 42.2939 -87.9739 251° West 214 246 2,500 -180 Descending Chicago Center
04:16PM 42.2389 -87.9722 179° South 222 255 2,500 -120 Level Chicago Center
04:17PM 42.1889 -87.9425 156° South 203 234 2,300 -240 Descending Chicago Center
04:19PM 42.1143 -87.9015 169° South  Level Estimated
04:26PM 42.1143 -87.9015 169° South  Level Estimated
04:27PM 42.1143 -87.9015 169° South  Level Estimated